Time;durP1;ratioP1;P1;durP2;ratioP2;P2;SDS_P1;SDS_P2;PMS_P1;PMS_P2;Temp;Humidity;BMP_temperature;BMP_pressure;BME280_temperature;BME280_humidity;BME280_pressure;Samples;Min_cycle;Max_cycle;Signal;HPM_P1;HPM_P2
2023/01/27 00:02:13;;;;;;;;;;;;;;;6.20;68.30;100941.47;5057956;28;20052;-58
2023/01/27 00:04:41;;;;;;;31.38;15.23;;;;;;;6.23;68.80;100932.59;5058157;28;19921;-58
2023/01/27 00:07:08;;;;;;;30.77;14.70;;;;;;;6.28;68.00;100942.88;5058679;28;20060;-58
2023/01/27 00:09:36;;;;;;;26.15;14.20;;;;;;;6.30;68.57;100937.91;5058690;28;20049;-59
2023/01/27 00:14:48;;;;;;;23.35;11.85;;;;;;;6.37;67.67;100932.91;5062898;28;20528;-58
2023/01/27 00:17:15;;;;;;;22.13;12.30;;;;;;;6.36;68.00;100939.53;5057740;28;20057;-58
2023/01/27 00:19:43;;;;;;;24.02;12.10;;;;;;;6.31;68.04;100936.78;5058593;28;20051;-58
2023/01/27 00:24:55;;;;;;;20.35;10.73;;;;;;;6.30;67.22;100935.13;5064503;28;20068;-58
2023/01/27 00:27:22;;;;;;;20.30;10.10;;;;;;;6.33;67.21;100940.09;5058421;28;20075;-58
2023/01/27 00:29:53;;;;;;;19.92;10.25;;;;;;;6.35;68.07;100932.34;5058553;28;20433;-59
2023/01/27 00:35:07;;;;;;;18.30;10.88;;;;;;;6.32;67.69;100930.16;5064104;28;20057;-58
2023/01/27 00:37:35;;;;;;;13.40;8.38;;;;;;;6.30;67.52;100924.06;5058288;28;20072;-58
2023/01/27 00:40:03;;;;;;;19.95;8.80;;;;;;;6.36;66.97;100928.47;5058557;28;20044;-58
2023/01/27 00:42:30;;;;;;;18.88;8.93;;;;;;;6.37;67.51;100934.84;5058363;28;20452;-58
2023/01/27 00:47:42;;;;;;;12.88;7.35;;;;;;;6.41;66.65;100942.34;5060333;28;20060;-59
2023/01/27 00:50:12;;;;;;;18.75;8.05;;;;;;;6.34;67.18;100939.00;5058305;28;20500;-58
2023/01/27 00:52:39;;;;;;;12.10;7.15;;;;;;;6.38;66.53;100942.03;5057669;28;20049;-58
2023/01/27 00:55:09;;;;;;;13.90;7.70;;;;;;;6.45;66.58;100937.91;5058313;28;20474;-58
2023/01/27 00:57:36;;;;;;;14.50;7.35;;;;;;;6.48;66.32;100942.06;5058089;28;20485;-58
2023/01/27 01:00:05;;;;;;;15.82;8.10;;;;;;;6.44;66.70;100952.84;5057528;28;20051;-58
2023/01/27 01:02:32;;;;;;;19.00;8.57;;;;;;;6.46;67.25;100958.94;5053247;28;20064;-59
2023/01/27 01:04:59;;;;;;;16.23;10.73;;;;;;;6.41;67.03;100961.69;5037395;28;20502;-58
2023/01/27 01:07:29;;;;;;;21.10;11.15;;;;;;;6.34;66.94;100958.38;5034692;28;20060;-58
2023/01/27 01:10:03;;;;;;;24.42;12.25;;;;;;;6.30;66.67;100960.84;5034794;28;20410;-58
2023/01/27 01:12:30;;;;;;;21.65;11.73;;;;;;;6.18;66.94;100964.97;5035195;28;20482;-58
2023/01/27 01:14:58;;;;;;;19.90;12.43;;;;;;;6.15;67.74;100965.50;5034431;28;20936;-58
2023/01/27 01:17:26;;;;;;;19.67;11.38;;;;;;;6.15;67.78;100959.97;5054253;28;20068;-58
2023/01/27 01:19:54;;;;;;;20.77;12.35;;;;;;;6.16;68.51;100970.78;5054531;28;20417;-58
2023/01/27 01:22:21;;;;;;;21.23;11.88;;;;;;;6.19;67.96;100963.88;5054787;28;20509;-58
2023/01/27 01:24:50;;;;;;;21.02;11.38;;;;;;;6.23;67.97;100964.97;5054568;28;20048;-58
2023/01/27 01:27:24;;;;;;;20.23;11.90;;;;;;;6.23;67.92;100967.75;5053681;28;20371;-59
2023/01/27 01:29:56;;;;;;;18.50;11.48;;;;;;;6.26;67.95;100972.75;5053573;28;20056;-58
2023/01/27 01:32:29;;;;;;;16.23;9.63;;;;;;;6.25;67.27;100969.13;5052451;28;20049;-60
2023/01/27 01:35:06;;;;;;;17.02;9.85;;;;;;;6.26;67.50;100978.28;5054604;28;20409;-60
2023/01/27 01:37:44;;;;;;;15.10;9.65;;;;;;;6.26;67.13;100972.75;5054436;28;20052;-59
2023/01/27 01:40:19;;;;;;;17.42;9.55;;;;;;;6.22;67.15;100977.16;5054412;28;20049;-60
2023/01/27 01:43:03;;;;;;;12.68;8.75;;;;;;;6.09;67.43;100978.50;5053899;28;20079;-62
2023/01/27 01:45:50;;;;;;;13.90;8.60;;;;;;;6.12;67.05;100980.72;5052789;28;20056;-59
2023/01/27 01:48:31;;;;;;;14.68;9.18;;;;;;;5.97;68.08;100975.16;5054691;28;20053;-59
2023/01/27 01:51:03;;;;;;;15.50;9.63;;;;;;;6.04;67.31;100979.31;5053785;28;20481;-59
2023/01/27 01:53:36;;;;;;;13.93;9.13;;;;;;;6.05;67.56;100978.22;5054775;28;20401;-59
2023/01/27 01:56:18;;;;;;;13.43;8.05;;;;;;;6.07;67.21;100970.47;5054125;28;20060;-59
2023/01/27 01:58:53;;;;;;;15.70;9.80;;;;;;;5.94;68.06;100979.22;5053574;28;20060;-59
2023/01/27 02:01:21;;;;;;;14.80;9.43;;;;;;;5.95;68.11;100972.66;5053623;28;20049;-59
2023/01/27 02:04:13;;;;;;;13.20;9.23;;;;;;;5.93;68.39;100974.81;5053376;28;20493;-59
2023/01/27 02:06:54;;;;;;;17.77;10.55;;;;;;;5.92;68.00;100978.66;5048865;28;20060;-60
2023/01/27 02:09:27;;;;;;;17.38;10.32;;;;;;;5.84;68.25;100970.94;5053466;28;20056;-59
2023/01/27 02:12:01;;;;;;;17.55;10.95;;;;;;;5.88;68.12;100972.88;5053678;28;20053;-59
2023/01/27 02:14:32;;;;;;;16.33;11.35;;;;;;;5.87;68.13;100967.59;5052317;28;20053;-59
2023/01/27 02:17:21;;;;;;;16.90;10.70;;;;;;;5.81;67.89;100963.97;5052824;28;20482;-59
2023/01/27 02:20:01;;;;;;;20.38;12.07;;;;;;;5.86;67.71;100968.72;5053487;28;20479;-59
2023/01/27 02:22:43;;;;;;;19.30;11.40;;;;;;;5.84;67.99;100977.28;5053571;28;20527;-59
2023/01/27 02:25:23;;;;;;;18.67;10.63;;;;;;;5.85;68.24;100972.56;5051353;28;20064;-58
2023/01/27 02:27:53;;;;;;;19.35;11.90;;;;;;;5.87;68.32;100975.91;5038638;28;20052;-59
2023/01/27 02:30:21;;;;;;;17.58;11.15;;;;;;;5.92;67.84;100977.84;5053336;28;20059;-59
2023/01/27 02:32:48;;;;;;;17.95;10.77;;;;;;;5.86;67.74;100969.56;5053225;28;20064;-59
2023/01/27 02:35:20;;;;;;;18.02;11.05;;;;;;;5.90;68.19;100978.16;5053711;28;20048;-59
2023/01/27 02:37:50;;;;;;;19.75;11.95;;;;;;;5.94;68.05;100973.69;5053020;28;20056;-60
2023/01/27 02:40:18;;;;;;;;;;;;;;;5.97;67.82;100977.91;5053153;28;20049;-59
2023/01/27 02:42:46;;;;;;;17.05;10.32;;;;;;;6.00;68.10;100975.41;5050848;28;19944;-59
2023/01/27 02:45:14;;;;;;;19.95;10.52;;;;;;;6.05;67.64;100978.22;5053341;28;20053;-59
2023/01/27 02:47:41;;;;;;;15.98;9.73;;;;;;;6.07;67.57;100984.31;5053238;28;20049;-59
2023/01/27 02:50:10;;;;;;;17.55;10.02;;;;;;;6.02;67.35;100989.81;5053104;28;20057;-59
2023/01/27 02:52:37;;;;;;;18.63;10.38;;;;;;;6.04;67.57;100976.53;5053033;28;20053;-59
2023/01/27 02:55:05;;;;;;;17.58;11.65;;;;;;;5.98;67.74;100988.69;5051040;28;20060;-59
2023/01/27 02:57:33;;;;;;;16.05;10.75;;;;;;;6.03;67.72;100983.19;5047387;28;20082;-59
2023/01/27 03:00:00;;;;;;;17.15;10.25;;;;;;;6.07;67.21;100973.25;5040476;28;20048;-59
2023/01/27 03:02:30;;;;;;;17.48;10.40;;;;;;;5.96;68.47;100974.28;5052490;28;20512;-59
2023/01/27 03:04:57;;;;;;;17.65;11.10;;;;;;;6.00;67.99;100974.59;5052864;28;20063;-59
2023/01/27 03:07:24;;;;;;;19.52;11.88;;;;;;;5.97;67.77;100975.97;5052376;28;20059;-59
2023/01/27 03:09:52;;;;;;;19.40;11.63;;;;;;;6.02;68.31;100975.16;5052494;28;20056;-59
2023/01/27 03:12:18;;;;;;;19.50;11.68;;;;;;;5.96;68.17;100971.53;5051274;28;20049;-60
2023/01/27 03:20:17;;;;;;;17.77;9.93;;;;;;;6.06;67.94;100968.81;5054730;28;20060;-59
2023/01/27 03:22:48;;;;;;;16.40;9.25;;;;;;;6.00;67.91;100974.59;5052708;28;20056;-59
2023/01/27 03:25:15;;;;;;;21.90;11.65;;;;;;;5.97;67.68;100970.44;5052940;28;20049;-59
2023/01/27 03:27:43;;;;;;;15.75;9.73;;;;;;;5.97;67.66;100973.22;5050801;28;20099;-59
2023/01/27 03:30:11;;;;;;;15.93;10.10;;;;;;;5.98;67.92;100972.09;5052069;28;20061;-59
2023/01/27 03:32:45;;;;;;;18.52;10.57;;;;;;;6.00;67.80;100974.59;5051653;28;20496;-59
2023/01/27 03:35:14;;;;;;;16.63;10.13;;;;;;;6.02;67.78;100978.75;5052403;28;20060;-59
2023/01/27 03:48:44;;;;;;;14.82;8.90;;;;;;;5.97;67.16;100978.75;5044524;28;20080;-61
2023/01/27 03:51:13;;;;;;;14.68;8.50;;;;;;;5.94;68.21;100976.47;5051513;28;20409;-60
2023/01/27 03:53:40;;;;;;;13.85;8.27;;;;;;;5.94;67.99;100976.47;5051690;28;20053;-61
2023/01/27 03:56:08;;;;;;;15.90;9.05;;;;;;;5.96;67.75;100974.28;5051933;28;20524;-60
2023/01/27 03:58:37;;;;;;;12.77;7.82;;;;;;;5.94;68.18;100981.19;5050076;28;20053;-59
2023/01/27 04:01:06;;;;;;;13.18;8.35;;;;;;;5.96;68.42;100979.81;5051559;28;20056;-60
2023/01/27 04:09:10;;;;;;;15.85;9.50;;;;;;;5.94;68.50;100981.19;5056766;28;20132;-59
2023/01/27 04:11:57;;;;;;;14.02;8.80;;;;;;;5.93;69.45;100985.88;5050577;28;20052;-59
2023/01/27 04:14:27;;;;;;;14.23;9.05;;;;;;;5.87;68.71;100973.13;5050911;28;20057;-59
2023/01/27 04:16:56;;;;;;;14.60;9.02;;;;;;;5.96;68.74;100976.25;5051581;28;20059;-60
2023/01/27 04:19:24;;;;;;;14.88;8.52;;;;;;;5.96;68.70;100974.28;5051499;28;20049;-59
2023/01/27 04:21:54;;;;;;;12.57;8.20;;;;;;;5.95;68.97;100983.72;5051778;28;20408;-59
2023/01/27 04:24:23;;;;;;;15.23;9.07;;;;;;;6.04;69.06;100984.84;5051697;28;20057;-59
2023/01/27 04:26:55;;;;;;;16.30;9.02;;;;;;;6.00;69.12;100983.72;5050067;28;20417;-59
2023/01/27 04:29:24;;;;;;;14.38;9.02;;;;;;;6.04;69.21;100990.38;5051679;28;20060;-60
2023/01/27 04:31:56;;;;;;;16.17;10.15;;;;;;;6.10;68.59;100991.22;5051101;28;20067;-60
2023/01/27 04:34:24;;;;;;;14.00;9.25;;;;;;;6.07;68.57;100987.06;5051875;28;20107;-60
2023/01/27 04:36:52;;;;;;;14.60;9.65;;;;;;;6.02;68.38;100992.56;5051562;28;20048;-60
2023/01/27 04:39:20;;;;;;;20.52;11.15;;;;;;;6.05;68.81;101000.34;5051661;28;20478;-60
2023/01/27 04:41:47;;;;;;;17.58;10.15;;;;;;;5.94;69.11;100990.28;5052633;28;20402;-59
2023/01/27 04:44:15;;;;;;;15.32;9.73;;;;;;;6.04;69.02;100992.31;5050691;28;20053;-60
2023/01/27 04:46:44;;;;;;;19.63;10.10;;;;;;;6.02;69.00;100995.34;5055401;28;20467;-60
2023/01/27 04:49:11;;;;;;;15.85;10.63;;;;;;;6.00;69.03;100997.53;5055179;28;20056;-60
2023/01/27 04:51:38;;;;;;;15.90;10.43;;;;;;;6.00;69.55;101005.84;5055112;28;20055;-60
2023/01/27 04:54:07;;;;;;;16.73;9.82;;;;;;;6.01;69.50;100996.44;5054776;28;20057;-60
2023/01/27 04:56:36;;;;;;;15.45;9.40;;;;;;;6.01;69.61;101001.97;5053648;28;20072;-60
2023/01/27 04:59:05;;;;;;;14.70;9.63;;;;;;;6.09;69.62;100997.88;5054932;28;20093;-61
2023/01/27 05:01:35;;;;;;;13.23;9.20;;;;;;;6.14;69.29;101008.13;5054959;28;20064;-60
2023/01/27 05:04:02;;;;;;;14.75;9.68;;;;;;;6.12;69.16;101010.31;5054957;28;20049;-59
2023/01/27 05:06:32;;;;;;;17.52;11.00;;;;;;;6.15;69.85;101020.81;5054738;28;20048;-59
2023/01/27 05:09:00;;;;;;;13.07;8.20;;;;;;;6.20;69.08;101018.09;5054816;28;20049;-60
2023/01/27 05:11:32;;;;;;;13.45;8.98;;;;;;;6.20;69.44;101023.63;5054317;28;20053;-59
2023/01/27 05:14:01;;;;;;;15.15;9.07;;;;;;;6.20;69.59;101026.38;5054853;28;20080;-60
2023/01/27 05:16:28;;;;;;;12.55;8.90;;;;;;;6.23;69.25;101017.53;5054102;28;20049;-60
2023/01/27 05:18:56;;;;;;;15.18;9.18;;;;;;;6.22;69.49;101021.41;5052885;28;20057;-60
2023/01/27 05:21:27;;;;;;;14.80;9.50;;;;;;;6.24;69.07;101025.56;5054522;28;20073;-60
2023/01/27 05:23:54;;;;;;;15.77;10.07;;;;;;;6.17;69.56;101018.63;5054551;28;20466;-60
2023/01/27 05:26:23;;;;;;;14.82;9.60;;;;;;;6.14;69.43;101020.00;5041377;28;20061;-60
2023/01/27 05:28:52;;;;;;;14.68;9.50;;;;;;;6.22;69.50;101026.94;5034931;28;20390;-60
2023/01/27 05:31:21;;;;;;;16.10;9.65;;;;;;;6.25;69.08;101021.69;5034534;28;20490;-61
2023/01/27 05:33:51;;;;;;;12.63;8.60;;;;;;;6.34;69.51;101030.31;5033887;28;20053;-60
2023/01/27 05:36:20;;;;;;;12.77;8.45;;;;;;;6.36;69.17;101025.31;5034642;28;20399;-60
2023/01/27 05:38:48;;;;;;;11.02;8.10;;;;;;;6.37;68.90;101028.94;5034821;28;20057;-60
2023/01/27 05:41:16;;;;;;;11.65;8.43;;;;;;;6.34;69.73;101030.31;5050932;28;20060;-61
2023/01/27 05:43:45;;;;;;;11.13;8.10;;;;;;;6.38;68.85;101038.88;5052808;28;20068;-60
2023/01/27 05:46:16;;;;;;;12.25;8.98;;;;;;;6.45;68.83;101039.47;5048718;28;20059;-59
2023/01/27 05:48:45;;;;;;;13.10;9.05;;;;;;;6.31;69.00;101044.69;5054035;28;20057;-60
2023/01/27 05:51:14;;;;;;;14.27;8.83;;;;;;;6.39;69.11;101043.31;5054185;28;20059;-60
2023/01/27 05:53:42;;;;;;;11.88;8.65;;;;;;;6.39;69.04;101044.16;5053894;28;20049;-60
2023/01/27 05:56:10;;;;;;;12.20;9.20;;;;;;;6.47;68.77;101045.56;5051874;28;20063;-60
2023/01/27 05:58:38;;;;;;;13.00;9.02;;;;;;;6.46;69.38;101041.94;5053205;28;20056;-61
2023/01/27 06:01:10;;;;;;;11.95;8.95;;;;;;;6.52;68.79;101041.97;5046722;28;20486;-60
2023/01/27 06:03:39;;;;;;;14.30;9.10;;;;;;;6.52;68.39;101050.28;5034043;28;20478;-60
2023/01/27 06:06:08;;;;;;;10.82;8.45;;;;;;;6.55;68.54;101046.94;5047597;28;20382;-60
2023/01/27 06:08:36;;;;;;;11.65;8.35;;;;;;;6.59;68.13;101059.13;5053053;28;20049;-60
2023/01/27 06:11:04;;;;;;;12.68;8.63;;;;;;;6.63;68.73;101052.78;5051046;28;20055;-60
2023/01/27 06:13:34;;;;;;;12.55;8.77;;;;;;;6.57;68.80;101051.09;5052758;28;20049;-60
2023/01/27 06:16:01;;;;;;;;;;;;;;;6.49;68.45;101046.13;5053427;28;20057;-61
2023/01/27 06:18:29;;;;;;;15.07;8.65;;;;;;;6.50;68.53;101054.13;5048114;28;19921;-60
2023/01/27 06:20:59;;;;;;;12.70;8.75;;;;;;;6.52;68.58;101050.28;5046459;28;20421;-60
2023/01/27 06:23:27;;;;;;;15.80;9.38;;;;;;;6.54;69.01;101054.44;5048358;28;20052;-60
2023/01/27 06:25:55;;;;;;;12.32;8.73;;;;;;;6.57;68.22;101055.81;5049343;28;20060;-60
2023/01/27 06:28:23;;;;;;;13.05;9.07;;;;;;;6.49;68.77;101055.25;5044751;28;20406;-59
2023/01/27 06:30:51;;;;;;;13.32;9.23;;;;;;;6.62;69.19;101053.06;5048569;28;20057;-59
2023/01/27 06:33:19;;;;;;;13.50;9.27;;;;;;;6.67;68.37;101061.38;5048081;28;20045;-60
2023/01/27 06:35:46;;;;;;;14.52;9.43;;;;;;;6.73;69.00;101060.28;5051931;28;20481;-60
2023/01/27 06:38:14;;;;;;;12.73;8.63;;;;;;;6.80;68.20;101065.53;5051008;28;20053;-60
2023/01/27 06:40:42;;;;;;;10.88;7.80;;;;;;;6.84;68.35;101070.25;5047629;28;20049;-60
2023/01/27 06:43:12;;;;;;;11.63;7.55;;;;;;;6.88;68.67;101076.09;5049590;28;20509;-59
2023/01/27 06:45:39;;;;;;;;;;;;;;;6.87;68.61;101068.91;5051494;28;20052;-60
2023/01/27 06:48:08;;;;;;;12.13;8.25;;;;;;;6.85;67.89;101077.47;5048731;28;19921;-60
2023/01/27 06:50:36;;;;;;;13.73;10.00;;;;;;;6.88;68.28;101085.22;5053300;28;20068;-60
2023/01/27 06:53:06;;;;;;;11.15;8.43;;;;;;;6.92;67.62;101079.97;5052684;28;20056;-60
2023/01/27 06:55:40;;;;;;;;;;;;;;;6.91;67.58;101079.13;5051937;28;20045;-60
2023/01/27 06:58:08;;;;;;;12.48;8.13;;;;;;;6.85;67.43;101085.78;5052464;28;19920;-60
2023/01/27 07:00:36;;;;;;;12.38;9.30;;;;;;;6.86;67.85;101090.19;5049345;28;20045;-60
2023/01/27 07:03:04;;;;;;;15.20;10.43;;;;;;;6.89;68.65;101081.34;5048640;28;20053;-59
2023/01/27 07:05:31;;;;;;;14.77;9.95;;;;;;;6.94;68.37;101094.38;5036649;28;20061;-60
2023/01/27 07:07:59;;;;;;;15.10;9.50;;;;;;;6.96;67.82;101088.56;5050192;28;20060;-59
2023/01/27 07:10:26;;;;;;;10.43;7.72;;;;;;;6.94;68.24;101094.38;5047548;28;20056;-59
2023/01/27 07:13:04;;;;;;;13.35;9.10;;;;;;;6.94;68.26;101093.53;5050461;28;20060;-58
2023/01/27 07:15:31;;;;;;;14.25;9.60;;;;;;;6.94;68.54;101090.78;5049969;28;20417;-60
2023/01/27 07:17:59;;;;;;;12.15;8.20;;;;;;;6.89;67.89;101089.66;5049377;28;20512;-59
2023/01/27 07:20:27;;;;;;;13.68;9.20;;;;;;;6.93;68.16;101098.25;5050076;28;20045;-60
2023/01/27 07:22:57;;;;;;;10.00;8.07;;;;;;;6.96;68.03;101097.69;5049797;28;20056;-59
2023/01/27 07:25:24;;;;;;;11.57;8.95;;;;;;;6.91;68.09;101101.28;5048238;28;20075;-60
2023/01/27 07:27:52;;;;;;;11.45;8.48;;;;;;;6.98;67.81;101102.97;5050298;28;20068;-60
2023/01/27 07:30:20;;;;;;;10.40;7.78;;;;;;;6.97;68.98;101104.91;5049456;28;20052;-60
2023/01/27 07:32:49;;;;;;;13.13;8.82;;;;;;;6.99;68.55;101101.84;5049421;28;20052;-60
2023/01/27 07:35:16;;;;;;;15.95;10.38;;;;;;;6.50;70.03;101101.19;5049238;28;20048;-40
2023/01/27 07:37:44;;;;;;;13.98;9.73;;;;;;;6.46;70.60;101105.59;5039177;28;20237;-61
2023/01/27 07:40:13;;;;;;;10.13;7.75;;;;;;;6.70;69.63;101105.97;5037935;28;20053;-59
2023/01/27 07:42:40;;;;;;;8.88;6.57;;;;;;;6.86;69.62;101106.81;5044794;28;20474;-61
2023/01/27 07:45:09;;;;;;;7.97;6.40;;;;;;;6.97;68.98;101107.69;5044470;28;20060;-59
2023/01/27 07:47:38;;;;;;;8.93;7.25;;;;;;;7.09;70.18;101112.94;5044574;28;20390;-59
2023/01/27 07:50:06;;;;;;;10.07;7.47;;;;;;;7.14;69.42;101107.44;5043695;28;20056;-58
2023/01/27 07:52:33;;;;;;;10.50;7.10;;;;;;;7.14;69.06;101099.13;5044691;28;20068;-58
2023/01/27 07:55:00;;;;;;;9.32;6.72;;;;;;;7.25;68.42;101109.09;5040293;28;20446;-58
2023/01/27 07:57:27;;;;;;;11.15;7.38;;;;;;;7.30;68.77;101120.16;5042806;28;20071;-64
2023/01/27 07:59:55;;;;;;;9.45;7.32;;;;;;;7.21;68.21;101118.22;5045334;28;20057;-60
2023/01/27 08:02:23;;;;;;;10.88;7.35;;;;;;;7.26;68.94;101119.03;5043745;28;20433;-61
2023/01/27 08:04:52;;;;;;;9.38;7.13;;;;;;;7.35;68.18;101119.34;5045589;28;20045;-62
2023/01/27 08:07:20;;;;;;;9.75;7.25;;;;;;;7.43;68.22;101117.94;5043569;28;20057;-60
2023/01/27 08:09:47;;;;;;;9.95;7.63;;;;;;;7.39;67.09;101116.84;5043239;28;20048;-61
2023/01/27 08:12:14;;;;;;;9.25;6.82;;;;;;;7.42;68.42;101110.75;5042804;28;20063;-59
2023/01/27 08:14:41;;;;;;;9.52;7.10;;;;;;;7.42;67.10;101127.38;5042470;28;20383;-60
2023/01/27 08:17:09;;;;;;;7.75;6.47;;;;;;;7.44;68.01;101125.16;5044471;28;20049;-60
2023/01/27 08:19:36;;;;;;;8.95;6.30;;;;;;;7.47;66.75;101128.19;5053481;28;20061;-61
2023/01/27 08:22:04;;;;;;;9.10;7.05;;;;;;;7.50;67.94;101119.34;5052882;28;20516;-59
2023/01/27 08:24:32;;;;;;;11.18;8.10;;;;;;;7.47;67.78;101127.38;5049121;28;20413;-61
2023/01/27 08:26:59;;;;;;;7.95;6.80;;;;;;;7.48;66.84;101131.81;5049988;28;20048;-61
2023/01/27 08:29:28;;;;;;;8.55;6.60;;;;;;;7.50;66.96;101129.59;5051404;28;20056;-61
2023/01/27 08:31:55;;;;;;;9.30;6.85;;;;;;;7.39;67.00;101125.16;5052983;28;20489;-61
2023/01/27 08:34:22;;;;;;;10.45;6.75;;;;;;;7.43;67.14;101123.47;5051589;28;20044;-58
2023/01/27 08:36:49;;;;;;;8.82;7.43;;;;;;;7.50;67.92;101124.06;5052075;28;20409;-58
2023/01/27 08:39:18;;;;;;;8.43;6.93;;;;;;;7.46;67.61;101121.00;5051274;28;20478;-58
2023/01/27 08:41:45;;;;;;;8.38;6.18;;;;;;;7.51;66.52;101129.31;5053182;28;20045;-61
2023/01/27 08:44:13;;;;;;;11.80;8.70;;;;;;;7.54;67.91;101130.72;5051106;28;20056;-61
2023/01/27 08:46:40;;;;;;;9.07;7.05;;;;;;;7.59;67.59;101127.91;5052751;28;20080;-61
2023/01/27 08:49:08;;;;;;;8.18;6.35;;;;;;;7.60;67.66;101129.59;5044414;28;20048;-61
2023/01/27 08:51:35;;;;;;;8.75;6.78;;;;;;;7.69;66.43;101122.38;5051967;28;20053;-61
2023/01/27 08:54:03;;;;;;;8.05;6.57;;;;;;;7.53;67.50;101132.63;5050835;28;20050;-62
2023/01/27 08:56:31;;;;;;;8.70;5.82;;;;;;;7.64;66.58;101130.72;5050209;28;20048;-61
2023/01/27 08:58:59;;;;;;;7.72;6.20;;;;;;;7.66;67.07;101141.50;5051944;28;20053;-61
2023/01/27 09:01:27;;;;;;;7.80;6.57;;;;;;;7.70;66.73;101134.28;5050086;28;20540;-60
2023/01/27 09:03:54;;;;;;;8.20;6.38;;;;;;;7.75;66.90;101148.16;5049192;28;20060;-61
2023/01/27 09:06:21;;;;;;;9.45;7.40;;;;;;;7.76;67.49;101152.59;5050619;28;20048;-61
2023/01/27 09:09:07;;;;;;;9.32;6.28;;;;;;;7.76;66.63;101154.53;5047830;28;20053;-61
2023/01/27 09:11:36;;;;;;;6.03;4.93;;;;;;;7.82;66.77;101153.41;5052701;28;20497;-60
2023/01/27 09:14:03;;;;;;;8.40;6.80;;;;;;;7.78;66.68;101158.69;5040900;28;20057;-61
2023/01/27 09:16:31;;;;;;;7.63;5.65;;;;;;;7.78;67.18;101158.69;5046990;28;20483;-61
2023/01/27 09:18:58;;;;;;;7.18;5.80;;;;;;;7.87;66.50;101161.72;5050174;28;20053;-61
2023/01/27 09:21:26;;;;;;;6.03;5.13;;;;;;;7.95;66.86;101166.69;5052069;28;20060;-61
2023/01/27 09:23:53;;;;;;;6.47;4.95;;;;;;;7.87;66.28;101164.50;5051782;28;20056;-61
2023/01/27 09:26:21;;;;;;;7.85;5.07;;;;;;;7.88;67.17;101174.50;5046187;28;20049;-61
2023/01/27 09:28:49;;;;;;;7.15;5.43;;;;;;;7.91;66.67;101171.97;5047949;28;20083;-60
2023/01/27 09:31:17;;;;;;;7.22;5.70;;;;;;;7.97;67.38;101175.56;5049379;28;20053;-62
2023/01/27 09:33:44;;;;;;;8.32;5.60;;;;;;;7.92;67.25;101178.38;5051976;28;20056;-60
2023/01/27 09:36:17;;;;;;;5.80;5.10;;;;;;;8.01;65.91;101179.47;5051136;28;20056;-58
2023/01/27 09:38:49;;;;;;;7.10;5.00;;;;;;;7.93;65.59;101183.63;5047126;28;20048;-58
2023/01/27 09:41:56;;;;;;;7.82;4.93;;;;;;;7.83;67.26;101185.56;5046009;28;20048;-58
2023/01/27 09:44:46;;;;;;;6.57;4.47;;;;;;;7.80;66.68;101188.91;5038179;28;20062;-58
2023/01/27 09:47:28;;;;;;;6.43;4.85;;;;;;;7.69;67.75;101188.91;5044968;28;20053;-58
2023/01/27 09:50:12;;;;;;;6.70;4.90;;;;;;;7.75;67.88;101198.06;5052181;28;20382;-58
2023/01/27 09:53:07;;;;;;;5.25;4.65;;;;;;;7.87;67.58;101187.53;5048317;28;20053;-58
2023/01/27 09:55:42;;;;;;;6.15;4.78;;;;;;;7.94;67.14;101192.78;5048204;28;20045;-61
2023/01/27 09:58:21;;;;;;;5.78;4.38;;;;;;;8.00;66.12;101197.22;5050326;28;20053;-60
2023/01/27 10:01:04;;;;;;;7.15;5.82;;;;;;;7.87;67.25;101206.09;5049636;28;20485;-61
2023/01/27 10:03:47;;;;;;;6.70;5.00;;;;;;;7.98;67.15;101204.13;5048914;28;20049;-59
2023/01/27 10:06:52;;;;;;;6.05;4.70;;;;;;;7.95;67.93;101205.53;5048094;28;20049;-57
2023/01/27 10:09:40;;;;;;;5.93;4.78;;;;;;;7.90;66.88;101200.84;5027666;28;20052;-58
2023/01/27 10:12:19;;;;;;;6.93;4.82;;;;;;;7.98;68.18;101204.13;5045186;28;20049;-58
2023/01/27 10:14:59;;;;;;;5.35;4.20;;;;;;;8.04;67.91;101200.25;5051897;28;20055;-58
2023/01/27 10:17:38;;;;;;;6.15;4.65;;;;;;;8.10;66.97;101205.50;5050319;28;20045;-58
2023/01/27 10:20:27;;;;;;;5.00;4.35;;;;;;;8.13;67.30;101201.38;5051331;28;20060;-58
2023/01/27 10:23:09;;;;;;;5.43;4.57;;;;;;;8.12;66.74;101199.69;5046282;28;20053;-61
2023/01/27 10:25:50;;;;;;;6.35;4.63;;;;;;;8.14;67.57;101206.63;5050165;28;20076;-60
2023/01/27 10:28:23;;;;;;;6.45;5.35;;;;;;;8.14;66.44;101201.06;5040828;28;20509;-61
2023/01/27 10:30:59;;;;;;;5.32;4.25;;;;;;;8.24;66.98;101202.19;5050318;28;20056;-61
2023/01/27 10:33:38;;;;;;;4.68;3.95;;;;;;;8.24;67.63;101205.78;5044107;28;20486;-61
2023/01/27 10:36:14;;;;;;;7.30;5.60;;;;;;;8.22;66.83;101198.84;5049804;28;20049;-61
2023/01/27 10:38:48;;;;;;;5.55;4.65;;;;;;;8.23;66.74;101212.44;5048795;28;20088;-61
2023/01/27 10:41:28;;;;;;;7.35;6.07;;;;;;;8.18;67.17;101211.63;5049033;28;20053;-61
2023/01/27 10:44:14;;;;;;;5.65;4.60;;;;;;;8.30;67.71;101203.84;5046673;28;20401;-61
2023/01/27 10:46:54;;;;;;;9.82;5.72;;;;;;;8.26;66.63;101208.28;5050625;28;20060;-61
2023/01/27 10:49:29;;;;;;;5.22;4.65;;;;;;;8.36;66.03;101199.06;5050567;28;20382;-61
2023/01/27 10:52:02;;;;;;;5.78;5.18;;;;;;;8.38;66.79;101199.63;5049244;28;20559;-60
2023/01/27 10:54:38;;;;;;;14.60;6.35;;;;;;;8.50;66.28;101194.63;5047058;28;20060;-61
2023/01/27 10:57:11;;;;;;;12.65;6.18;;;;;;;8.54;67.00;101201.28;5046101;28;20053;-60
2023/01/27 10:59:44;;;;;;;7.20;4.70;;;;;;;8.45;66.09;101198.25;5049750;28;20057;-61
2023/01/27 11:02:18;;;;;;;6.65;4.57;;;;;;;8.51;67.41;101197.13;5047130;28;20049;-60
2023/01/27 11:04:52;;;;;;;11.02;6.15;;;;;;;8.57;65.75;101205.44;5046561;28;20049;-61
2023/01/27 11:07:21;;;;;;;11.88;6.20;;;;;;;8.58;67.53;101199.59;5046829;28;20049;-61
2023/01/27 11:09:53;;;;;;;7.97;5.82;;;;;;;8.62;66.88;101199.88;5048490;28;20413;-61
2023/01/27 11:12:28;;;;;;;15.82;7.80;;;;;;;8.60;66.35;101194.59;5050979;28;20053;-61
2023/01/27 11:14:56;;;;;;;9.32;6.80;;;;;;;8.63;66.46;101182.94;5049330;28;20414;-61
2023/01/27 11:17:29;;;;;;;9.85;6.88;;;;;;;8.69;65.80;101190.13;5048434;28;20057;-61
2023/01/27 11:20:06;;;;;;;9.35;5.63;;;;;;;8.76;66.18;101183.41;5047730;28;20057;-61
2023/01/27 11:22:41;;;;;;;10.90;6.20;;;;;;;8.80;64.80;101174.25;5044721;28;20713;-61
2023/01/27 11:25:22;;;;;;;8.35;5.25;;;;;;;8.85;64.77;101171.44;5042260;28;20494;-61
2023/01/27 11:28:03;;;;;;;7.78;5.47;;;;;;;8.89;64.77;101166.16;5044226;28;20061;-61
2023/01/27 11:30:36;;;;;;;9.23;5.60;;;;;;;8.99;65.31;101170.78;5037720;28;20049;-60
2023/01/27 11:33:17;;;;;;;12.30;6.57;;;;;;;9.03;64.47;101177.44;5039165;28;20060;-59
2023/01/27 11:35:47;;;;;;;13.43;8.13;;;;;;;9.02;64.82;101171.06;5042258;28;20053;-61
2023/01/27 11:38:18;;;;;;;6.05;4.97;;;;;;;9.02;64.93;101170.25;5041138;28;20493;-60
2023/01/27 11:40:49;;;;;;;12.30;7.80;;;;;;;9.09;64.72;101177.16;5046670;28;20064;-61
2023/01/27 11:43:20;;;;;;;10.73;6.63;;;;;;;9.16;64.53;101171.28;5047368;28;20413;-61
2023/01/27 11:45:50;;;;;;;5.93;4.90;;;;;;;9.14;64.10;101179.06;5043775;28;20053;-61
2023/01/27 11:48:19;;;;;;;4.78;4.15;;;;;;;9.19;63.96;101176.22;5049224;28;20045;-61
2023/01/27 11:50:48;;;;;;;6.20;4.95;;;;;;;9.09;63.22;101170.75;5043711;28;20048;-62
2023/01/27 11:53:21;;;;;;;5.85;4.60;;;;;;;9.02;63.85;101173.84;5049611;28;20065;-60
2023/01/27 11:55:51;;;;;;;5.00;4.10;;;;;;;9.02;64.78;101173.03;5043623;28;20406;-61
2023/01/27 11:58:24;;;;;;;6.20;3.95;;;;;;;9.05;63.57;101177.97;5049157;28;20057;-60
2023/01/27 12:00:56;;;;;;;6.05;4.53;;;;;;;9.02;64.84;101182.19;5043748;28;20053;-61
2023/01/27 12:03:34;;;;;;;6.00;4.63;;;;;;;9.11;63.33;101171.28;5049175;28;20049;-61
2023/01/27 12:06:05;;;;;;;5.03;3.90;;;;;;;9.09;63.26;101165.19;5043794;28;20059;-61
2023/01/27 12:08:40;;;;;;;6.25;4.30;;;;;;;9.13;64.23;101163.50;5039133;28;20057;-61
2023/01/27 12:11:22;;;;;;;7.00;5.05;;;;;;;9.25;63.43;101175.09;5048341;28;20049;-57
2023/01/27 12:13:52;;;;;;;6.18;4.35;;;;;;;9.22;62.92;101159.00;5049391;28;20057;-58
2023/01/27 12:16:20;;;;;;;4.68;3.90;;;;;;;9.28;63.73;101160.63;5046472;28;20490;-58
2023/01/27 12:18:52;;;;;;;5.53;3.83;;;;;;;9.45;63.22;101162.16;5049290;28;20508;-58